createdAt,value
2022-10-06T00:00:10.032Z,11.00
2022-10-06T00:03:51.858Z,11.00
2022-10-06T00:07:34.775Z,10.90
2022-10-06T00:11:17.433Z,10.80
2022-10-06T00:14:59.327Z,10.70
2022-10-06T00:18:41.192Z,10.70
2022-10-06T00:22:23.026Z,10.60
2022-10-06T00:26:05.148Z,10.50
2022-10-06T00:29:46.950Z,10.50
2022-10-06T00:33:28.788Z,10.40
2022-10-06T00:37:10.648Z,10.40
2022-10-06T00:40:52.491Z,10.40
2022-10-06T00:44:34.300Z,10.30
2022-10-06T00:48:26.326Z,10.40
2022-10-06T00:52:11.720Z,10.30
2022-10-06T00:55:54.474Z,10.30
2022-10-06T00:59:37.430Z,10.20
2022-10-06T01:03:27.161Z,10.20
2022-10-06T01:07:09.900Z,10.10
2022-10-06T01:10:51.755Z,10.10
2022-10-06T01:14:35.058Z,10.10
2022-10-06T01:18:20.217Z,10.00
2022-10-06T01:22:05.828Z,10.00
2022-10-06T01:25:48.224Z,9.90
2022-10-06T01:29:33.321Z,9.90
2022-10-06T01:33:15.121Z,9.90
2022-10-06T01:36:57.035Z,9.80
2022-10-06T01:40:38.840Z,9.80
2022-10-06T01:44:20.694Z,9.80
2022-10-06T01:48:02.493Z,9.70
2022-10-06T01:51:46.867Z,9.70
2022-10-06T01:55:28.683Z,9.70
2022-10-06T01:59:10.530Z,9.60
2022-10-06T02:02:52.352Z,9.60
2022-10-06T02:06:34.222Z,9.60
2022-10-06T02:10:16.342Z,9.50
2022-10-06T02:13:58.156Z,9.60
2022-10-06T02:17:40.191Z,9.60
2022-10-06T02:21:23.439Z,9.60
2022-10-06T02:25:05.813Z,9.60
2022-10-06T02:28:47.909Z,9.60
2022-10-06T02:32:37.571Z,9.50
2022-10-06T02:36:19.456Z,9.50
2022-10-06T02:40:01.368Z,9.50
2022-10-06T02:43:43.183Z,9.40
2022-10-06T02:47:24.983Z,9.50
2022-10-06T02:51:17.703Z,9.40
2022-10-06T02:54:59.539Z,9.40
2022-10-06T02:58:42.891Z,9.40
2022-10-06T03:02:25.041Z,9.40
2022-10-06T03:06:21.992Z,9.30
2022-10-06T03:10:04.069Z,9.30
2022-10-06T03:13:47.301Z,9.20
2022-10-06T03:17:29.178Z,9.20
2022-10-06T03:21:12.352Z,9.10
2022-10-06T03:24:54.251Z,9.10
2022-10-06T03:28:36.145Z,9.10
2022-10-06T03:32:17.948Z,9.00
2022-10-06T03:36:05.448Z,9.00
2022-10-06T03:39:47.681Z,9.00
2022-10-06T03:43:29.558Z,9.00
2022-10-06T03:47:16.788Z,9.00
2022-10-06T03:51:36.090Z,8.90
2022-10-06T03:55:17.907Z,8.90
2022-10-06T03:59:02.324Z,8.90
2022-10-06T04:02:44.147Z,8.90
2022-10-06T04:06:27.659Z,8.90
2022-10-06T04:10:10.286Z,8.90
2022-10-06T04:14:00.646Z,8.80
2022-10-06T04:17:42.483Z,8.80
2022-10-06T04:21:25.644Z,8.80
2022-10-06T04:25:08.098Z,8.80
2022-10-06T04:28:50.491Z,8.70
2022-10-06T04:32:32.660Z,8.70
2022-10-06T04:36:17.468Z,8.70
2022-10-06T04:39:59.251Z,8.70
2022-10-06T04:43:41.428Z,8.70
2022-10-06T04:47:23.303Z,8.70
2022-10-06T04:51:12.363Z,8.70
2022-10-06T04:54:54.163Z,8.60
2022-10-06T04:58:41.086Z,8.70
2022-10-06T05:02:23.022Z,8.60
2022-10-06T05:06:19.399Z,8.60
2022-10-06T05:10:01.279Z,8.60
2022-10-06T05:13:43.258Z,8.70
2022-10-06T05:17:25.076Z,8.70
2022-10-06T05:21:11.183Z,8.60
2022-10-06T05:24:53.944Z,8.70
2022-10-06T05:28:36.283Z,8.70
2022-10-06T05:32:18.143Z,8.70
2022-10-06T05:36:03.732Z,8.70
2022-10-06T05:39:46.761Z,8.70
2022-10-06T05:43:29.061Z,8.70
2022-10-06T05:47:10.976Z,8.80
2022-10-06T05:51:09.943Z,8.80
2022-10-06T05:54:51.770Z,8.80
2022-10-06T05:58:35.477Z,8.80
2022-10-06T06:02:17.689Z,8.80
2022-10-06T06:05:59.686Z,8.70
2022-10-06T06:09:41.607Z,8.70
2022-10-06T06:13:23.700Z,8.70
2022-10-06T06:17:05.658Z,8.70
2022-10-06T06:20:56.313Z,8.70
2022-10-06T06:24:38.119Z,8.60
2022-10-06T06:28:20.305Z,8.70
2022-10-06T06:32:02.239Z,8.60
2022-10-06T06:35:44.102Z,8.60
2022-10-06T06:39:25.980Z,8.60
2022-10-06T06:43:07.833Z,8.60
2022-10-06T06:46:49.840Z,8.60
2022-10-06T06:50:32.403Z,8.70
2022-10-06T06:54:14.223Z,8.70
2022-10-06T06:57:56.014Z,8.70
2022-10-06T07:01:44.493Z,8.70
2022-10-06T07:05:27.248Z,8.70
2022-10-06T07:09:10.455Z,8.80
2022-10-06T07:12:52.278Z,8.80
2022-10-06T07:16:52.999Z,8.80
2022-10-06T07:20:54.099Z,8.90
2022-10-06T07:24:54.730Z,9.00
2022-10-06T07:28:36.581Z,9.00
2022-10-06T07:32:21.176Z,9.10
2022-10-06T07:36:03.087Z,9.20
2022-10-06T07:39:45.415Z,9.30
2022-10-06T07:43:27.242Z,9.40
2022-10-06T07:47:09.799Z,9.50
2022-10-06T07:50:52.690Z,9.60
2022-10-06T07:54:34.672Z,9.70
2022-10-06T07:58:23.941Z,9.80
2022-10-06T08:02:05.862Z,9.90
2022-10-06T08:05:49.904Z,10.00
2022-10-06T08:09:31.759Z,10.10
2022-10-06T08:13:13.538Z,10.20
2022-10-06T08:16:55.331Z,10.30
2022-10-06T08:20:37.132Z,10.50
2022-10-06T08:24:19.782Z,10.60
2022-10-06T08:28:01.993Z,10.70
2022-10-06T08:31:43.851Z,11.00
2022-10-06T08:35:25.668Z,11.30
2022-10-06T08:39:07.516Z,11.70
2022-10-06T08:42:53.567Z,12.20
2022-10-06T08:46:40.349Z,12.50
2022-10-06T08:50:26.195Z,12.80
2022-10-06T08:54:19.714Z,13.00
2022-10-06T08:58:18.733Z,13.10
2022-10-06T09:02:00.797Z,13.40
2022-10-06T09:05:42.853Z,13.70
2022-10-06T09:09:30.896Z,14.00
2022-10-06T09:13:21.744Z,14.50
2022-10-06T09:17:10.724Z,14.80
2022-10-06T09:21:04.389Z,14.90
2022-10-06T09:24:50.390Z,15.10
2022-10-06T09:28:33.681Z,15.20
2022-10-06T09:32:19.992Z,15.30
2022-10-06T09:36:09.885Z,15.50
2022-10-06T09:39:52.860Z,15.60
2022-10-06T09:43:34.781Z,15.80
2022-10-06T09:47:37.213Z,16.10
2022-10-06T09:51:19.071Z,16.70
2022-10-06T09:55:13.013Z,17.50
2022-10-06T09:59:00.491Z,18.40
2022-10-06T10:02:42.551Z,19.30
2022-10-06T10:06:30.236Z,20.10
2022-10-06T10:10:22.136Z,21.00
2022-10-06T10:14:04.187Z,21.80
2022-10-06T10:17:55.474Z,22.50
2022-10-06T10:21:37.667Z,23.10
2022-10-06T10:25:51.868Z,23.50
2022-10-06T10:29:42.682Z,24.20
2022-10-06T10:33:54.035Z,24.80
2022-10-06T10:37:52.512Z,25.50
2022-10-06T10:42:02.978Z,25.90
2022-10-06T10:45:50.165Z,26.20
2022-10-06T10:49:33.296Z,26.20
2022-10-06T10:53:27.234Z,25.90
2022-10-06T10:57:35.766Z,25.40
2022-10-06T11:01:37.804Z,25.20
2022-10-06T11:05:33.431Z,25.30
2022-10-06T11:09:21.027Z,25.30
2022-10-06T11:13:40.474Z,25.10
2022-10-06T11:17:44.421Z,24.70
2022-10-06T11:21:43.111Z,24.80
2022-10-06T11:25:49.751Z,25.20
2022-10-06T11:29:47.045Z,25.20
2022-10-06T11:33:31.601Z,25.50
2022-10-06T11:37:16.494Z,26.10
2022-10-06T11:41:24.027Z,26.60
2022-10-06T11:45:14.102Z,27.30
2022-10-06T11:49:34.251Z,27.60
2022-10-06T11:53:37.180Z,27.50
2022-10-06T11:57:30.965Z,27.50
2022-10-06T12:01:39.378Z,27.60
2022-10-06T12:05:55.249Z,27.00
2022-10-06T12:09:30.953Z,26.50
2022-10-06T12:17:58.039Z,25.70
2022-10-06T12:21:45.674Z,25.20
2022-10-06T12:25:51.071Z,24.80
2022-10-06T12:29:54.543Z,24.90
2022-10-06T12:33:41.747Z,25.00
2022-10-06T12:37:29.481Z,24.70
2022-10-06T12:41:13.680Z,24.30
2022-10-06T12:44:56.233Z,23.90
2022-10-06T12:48:56.740Z,23.90
2022-10-06T12:52:38.482Z,23.70
2022-10-06T12:56:34.220Z,23.70
2022-10-06T13:00:39.682Z,24.30
2022-10-06T13:04:31.472Z,25.70
2022-10-06T13:08:28.410Z,26.80
2022-10-06T13:12:23.530Z,26.70
2022-10-06T13:16:07.970Z,26.10
2022-10-06T13:19:51.202Z,25.80
2022-10-06T13:23:35.612Z,26.20
2022-10-06T13:27:17.958Z,26.00
2022-10-06T13:34:48.815Z,25.30
2022-10-06T13:38:34.969Z,24.70
2022-10-06T13:42:18.190Z,24.20
2022-10-06T13:46:00.999Z,23.80
2022-10-06T13:49:56.438Z,23.40
2022-10-06T13:53:38.767Z,23.40
2022-10-06T13:57:38.673Z,23.40
2022-10-06T14:01:32.740Z,23.30
2022-10-06T14:05:24.119Z,23.10
2022-10-06T14:09:13.361Z,23.30
2022-10-06T14:12:55.529Z,23.70
2022-10-06T14:16:37.428Z,23.80
2022-10-06T14:20:48.004Z,23.50
2022-10-06T14:24:33.952Z,23.20
2022-10-06T14:28:15.835Z,23.20
2022-10-06T14:32:14.036Z,23.70
2022-10-06T14:35:56.070Z,23.80
2022-10-06T14:39:37.943Z,23.60
2022-10-06T14:43:19.834Z,23.50
2022-10-06T14:47:01.683Z,23.20
2022-10-06T14:50:44.898Z,22.90
2022-10-06T14:54:26.835Z,22.60
2022-10-06T14:58:08.639Z,22.50
2022-10-06T15:01:50.658Z,22.40
2022-10-06T15:05:32.562Z,22.20
2022-10-06T15:09:15.055Z,22.00
2022-10-06T15:12:57.174Z,21.80
2022-10-06T15:16:42.229Z,21.70
2022-10-06T15:20:24.129Z,21.60
2022-10-06T15:24:07.215Z,21.60
2022-10-06T15:28:07.652Z,21.50
2022-10-06T15:31:52.593Z,21.50
2022-10-06T15:35:34.410Z,21.40
2022-10-06T15:39:16.720Z,21.40
2022-10-06T15:42:58.505Z,21.30
2022-10-06T15:46:46.092Z,21.20
2022-10-06T15:50:28.545Z,21.60
2022-10-06T15:54:10.947Z,22.00
2022-10-06T15:57:52.879Z,22.10
2022-10-06T16:01:42.301Z,21.90
2022-10-06T16:05:48.757Z,21.60
2022-10-06T16:09:31.672Z,21.30
2022-10-06T16:13:13.653Z,21.10
2022-10-06T16:16:59.744Z,20.90
2022-10-06T16:20:41.590Z,20.70
2022-10-06T16:24:25.343Z,20.60
2022-10-06T16:28:07.186Z,20.50
2022-10-06T16:31:53.141Z,20.40
2022-10-06T16:35:48.815Z,20.30
2022-10-06T16:39:30.978Z,20.30
2022-10-06T16:43:12.817Z,20.30
2022-10-06T16:47:16.118Z,20.20
2022-10-06T16:51:29.144Z,20.10
2022-10-06T16:55:14.446Z,20.00
2022-10-06T16:58:59.130Z,19.90
2022-10-06T17:02:41.317Z,19.90
2022-10-06T17:06:23.427Z,19.70
2022-10-06T17:10:20.206Z,19.60
2022-10-06T17:14:04.164Z,19.50
2022-10-06T17:17:46.116Z,19.40
2022-10-06T17:21:45.504Z,19.30
2022-10-06T17:25:28.395Z,19.20
2022-10-06T17:29:19.187Z,19.00
2022-10-06T17:33:01.817Z,18.90
2022-10-06T17:36:49.429Z,18.80
2022-10-06T17:40:31.232Z,18.60
2022-10-06T17:44:18.827Z,18.50
2022-10-06T17:48:00.700Z,18.40
2022-10-06T17:51:45.303Z,18.30
2022-10-06T17:55:28.102Z,18.20
2022-10-06T17:59:25.153Z,18.10
2022-10-06T18:03:09.045Z,18.00
2022-10-06T18:06:53.198Z,17.90
2022-10-06T18:10:59.034Z,17.80
2022-10-06T18:14:41.526Z,17.80
2022-10-06T18:18:25.282Z,17.80
2022-10-06T18:22:10.921Z,17.70
2022-10-06T18:25:52.789Z,17.50
2022-10-06T18:29:37.062Z,17.40
2022-10-06T18:36:11.041Z,17.30
2022-10-06T18:37:20.827Z,17.30
2022-10-06T18:41:05.723Z,17.20
2022-10-06T18:45:06.066Z,17.10
2022-10-06T18:48:58.358Z,17.00
2022-10-06T18:52:40.536Z,16.90
2022-10-06T18:56:31.190Z,16.90
2022-10-06T19:00:13.327Z,16.80
2022-10-06T19:04:01.307Z,16.70
2022-10-06T19:07:43.713Z,16.60
2022-10-06T19:11:44.771Z,16.60
2022-10-06T19:15:26.613Z,16.50
2022-10-06T19:19:11.207Z,16.40
2022-10-06T19:22:53.047Z,16.30
2022-10-06T19:26:35.772Z,16.30
2022-10-06T19:30:18.466Z,16.20
2022-10-06T19:34:02.952Z,16.10
2022-10-06T19:37:45.527Z,16.00
2022-10-06T19:41:46.231Z,16.00
2022-10-06T19:45:28.076Z,16.00
2022-10-06T19:49:10.595Z,15.90
2022-10-06T19:52:52.427Z,15.80
2022-10-06T19:56:34.779Z,15.80
2022-10-06T20:00:18.062Z,15.80
2022-10-06T20:07:58.219Z,15.70
2022-10-06T20:11:43.809Z,15.60
2022-10-06T20:15:25.610Z,15.60
2022-10-06T20:19:10.062Z,15.50
2022-10-06T20:22:52.962Z,15.50
2022-10-06T20:26:38.588Z,15.50
2022-10-06T20:30:20.454Z,15.40
2022-10-06T20:34:05.023Z,15.40
2022-10-06T20:37:47.155Z,15.30
2022-10-06T20:41:29.867Z,15.30
2022-10-06T20:45:11.742Z,15.30
2022-10-06T20:48:53.555Z,15.20
2022-10-06T20:52:35.908Z,15.20
2022-10-06T20:56:18.322Z,15.10
2022-10-06T21:00:00.173Z,15.10
2022-10-06T21:03:47.097Z,15.00
2022-10-06T21:07:28.824Z,15.00
2022-10-06T21:11:13.012Z,15.00
2022-10-06T21:14:56.938Z,15.00
2022-10-06T21:18:38.966Z,14.90
2022-10-06T21:22:20.765Z,14.90
2022-10-06T21:26:03.399Z,14.80
2022-10-06T21:29:45.229Z,14.70
2022-10-06T21:33:27.273Z,14.70
2022-10-06T21:37:09.124Z,14.70
2022-10-06T21:40:51.172Z,14.60
2022-10-06T21:44:33.010Z,14.60
2022-10-06T21:48:14.846Z,14.50
2022-10-06T21:51:58.638Z,14.50
2022-10-06T21:55:40.449Z,14.40
2022-10-06T21:59:22.384Z,14.40
2022-10-06T22:03:06.428Z,14.40
2022-10-06T22:06:51.760Z,14.30
2022-10-06T22:10:33.566Z,14.30
2022-10-06T22:14:17.575Z,14.20
2022-10-06T22:17:59.585Z,14.20
2022-10-06T22:21:43.153Z,14.10
2022-10-06T22:25:25.156Z,14.10
2022-10-06T22:29:08.900Z,14.10
2022-10-06T22:32:50.842Z,14.10
2022-10-06T22:36:33.821Z,14.00
2022-10-06T22:40:15.738Z,14.00
2022-10-06T22:43:59.218Z,14.00
2022-10-06T22:47:41.231Z,14.00
2022-10-06T22:51:23.298Z,14.00
2022-10-06T22:55:05.709Z,13.90
2022-10-06T22:58:48.042Z,13.90
2022-10-06T23:02:29.904Z,13.90
2022-10-06T23:06:14.335Z,13.90
2022-10-06T23:09:56.186Z,13.90
2022-10-06T23:13:38.117Z,13.90
2022-10-06T23:17:19.939Z,13.80
2022-10-06T23:21:10.837Z,13.80
2022-10-06T23:24:53.511Z,13.70
2022-10-06T23:28:35.564Z,13.70
2022-10-06T23:32:17.507Z,13.70
2022-10-06T23:36:07.182Z,13.70
2022-10-06T23:39:49.017Z,13.60
2022-10-06T23:43:30.824Z,13.60
2022-10-06T23:47:12.615Z,13.60
2022-10-06T23:51:06.894Z,13.60
2022-10-06T23:54:49.647Z,13.50
2022-10-06T23:58:31.837Z,13.50
